sensor_id;sensor_type;location;lat;lon;timestamp;pressure;altitude;pressure_sealevel;temperature;humidity
86342;BME280;76997;51.520;11.962;2024-03-23T00:55:52;99909.32;;;7.977656;84.27734
86342;BME280;76997;51.520;11.962;2024-03-23T01:00:52;99905.96;;;8.023555;84.57129
86342;BME280;76997;51.520;11.962;2024-03-23T01:05:52;99888.25;;;8.061836;84.35645
86342;BME280;76997;51.520;11.962;2024-03-23T01:10:58;99879.73;;;8.05168;84.50488
86342;BME280;76997;51.520;11.962;2024-03-23T01:15:53;99862.49;;;8.084883;84.12891
86342;BME280;76997;51.520;11.962;2024-03-23T01:20:52;99850.38;;;8.054218;84.2832
86342;BME280;76997;51.520;11.962;2024-03-23T01:25:55;99845.2;;;8.015938;84.28418
86342;BME280;76997;51.520;11.962;2024-03-23T01:30:56;99850.03;;;8.026093;84.2041
86342;BME280;76997;51.520;11.962;2024-03-23T01:35:52;99836.01;;;8.156367;84.00586
86342;BME280;76997;51.520;11.962;2024-03-23T01:40:56;99832.05;;;8.05168;84.13574
86342;BME280;76997;51.520;11.962;2024-03-23T01:45:52;99833.47;;;8.0925;84.38477
86342;BME280;76997;51.520;11.962;2024-03-23T01:50:52;99829.89;;;8.054218;84.24121
86342;BME280;76997;51.520;11.962;2024-03-23T01:55:52;99832.05;;;8.074726;84.44531
86342;BME280;76997;51.520;11.962;2024-03-23T02:00:52;99830.98;;;8.095039;84.45898
86342;BME280;76997;51.520;11.962;2024-03-23T02:05:52;99810.64;;;8.084883;84.60352
86342;BME280;76997;51.520;11.962;2024-03-23T02:10:52;99807.14;;;8.026093;84.77344
86342;BME280;76997;51.520;11.962;2024-03-23T02:15:56;99795.78;;;8.026093;85.02637
86342;BME280;76997;51.520;11.962;2024-03-23T02:20:52;99789;;;7.982734;85.1543
86342;BME280;76997;51.520;11.962;2024-03-23T02:25:52;99771.98;;;7.990352;84.71289
86342;BME280;76997;51.520;11.962;2024-03-23T02:30:52;99783.4;;;8.03371;84.93359
86342;BME280;76997;51.520;11.962;2024-03-23T02:35:55;99765.34;;;8.010859;85.12793
86342;BME280;76997;51.520;11.962;2024-03-23T02:40:52;99783.2;;;7.793672;85.59082
86342;BME280;76997;51.520;11.962;2024-03-23T02:45:52;99761.42;;;7.939375;84.72461
86342;BME280;76997;51.520;11.962;2024-03-23T02:50:52;99749.95;;;8.03371;84.06836
86342;BME280;76997;51.520;11.962;2024-03-23T02:55:52;99748.27;;;7.906172;85.06543
86342;BME280;76997;51.520;11.962;2024-03-23T03:00:52;99737.53;;;7.934102;85.46094
86342;BME280;76997;51.520;11.962;2024-03-23T03:05:54;99737.88;;;7.91125;85.4873
86342;BME280;76997;51.520;11.962;2024-03-23T03:10:52;99731.8;;;7.91125;85.30762
86342;BME280;76997;51.520;11.962;2024-03-23T03:15:52;99740.38;;;7.936836;85.69336
86342;BME280;76997;51.520;11.962;2024-03-23T03:20:53;99747.13;;;8.044063;85.65039
86342;BME280;76997;51.520;11.962;2024-03-23T03:25:52;99723.59;;;8.113008;85.31738
86342;BME280;76997;51.520;11.962;2024-03-23T03:30:52;99700.78;;;8.069453;85.63477
86342;BME280;76997;51.520;11.962;2024-03-23T03:35:52;99666.22;;;8.018476;85.27734
86342;BME280;76997;51.520;11.962;2024-03-23T03:40:56;99667.22;;;7.903633;85.33789
86342;BME280;76997;51.520;11.962;2024-03-23T03:45:56;99683.11;;;7.831953;85.5459
86342;BME280;76997;51.520;11.962;2024-03-23T03:50:52;99688.03;;;7.742695;86.00293
86342;BME280;76997;51.520;11.962;2024-03-23T03:55:52;99666.27;;;7.719648;85.58691
86342;BME280;76997;51.520;11.962;2024-03-23T04:00:56;99660.34;;;7.663594;85.91309
86342;BME280;76997;51.520;11.962;2024-03-23T04:05:54;99650.01;;;7.688984;86.54004
86342;BME280;76997;51.520;11.962;2024-03-23T04:10:56;99652.2;;;7.742695;86.27734
86342;BME280;76997;51.520;11.962;2024-03-23T04:15:53;99641.8;;;7.719648;86.05078
86342;BME280;76997;51.520;11.962;2024-03-23T04:20:52;99621.87;;;7.712031;85.95508
86342;BME280;76997;51.520;11.962;2024-03-23T04:25:52;99608.84;;;7.714571;85.56543
86342;BME280;76997;51.520;11.962;2024-03-23T04:30:52;99606.16;;;7.729805;85.78906
86342;BME280;76997;51.520;11.962;2024-03-23T04:35:52;99591.97;;;7.694063;85.60449
86342;BME280;76997;51.520;11.962;2024-03-23T04:40:58;99574.41;;;7.602266;86.02734
86342;BME280;76997;51.520;11.962;2024-03-23T04:45:52;99566.02;;;7.581758;86.42383
86342;BME280;76997;51.520;11.962;2024-03-23T04:50:54;99566.52;;;7.591914;86.11035
86342;BME280;76997;51.520;11.962;2024-03-23T04:55:56;99532.37;;;7.584297;85.83398
86342;BME280;76997;51.520;11.962;2024-03-23T05:00:52;99523.73;;;7.505195;86.01953
86342;BME280;76997;51.520;11.962;2024-03-23T05:05:52;99508.53;;;7.482149;86.02441
86342;BME280;76997;51.520;11.962;2024-03-23T05:10:52;99515.05;;;7.443867;85.71191
86342;BME280;76997;51.520;11.962;2024-03-23T05:15:54;99522.13;;;7.426094;85.91992
86342;BME280;76997;51.520;11.962;2024-03-23T05:20:55;99515.47;;;7.548555;85.22656
86342;BME280;76997;51.520;11.962;2024-03-23T05:25:52;99515.26;;;7.528242;85.06543
86342;BME280;76997;51.520;11.962;2024-03-23T05:30:54;99515.98;;;7.507734;85.15625
86342;BME280;76997;51.520;11.962;2024-03-23T05:35:56;99539.7;;;7.385078;85.68945
86342;BME280;76997;51.520;11.962;2024-03-23T05:40:57;99519.75;;;7.459297;85.59961
86342;BME280;76997;51.520;11.962;2024-03-23T05:45:57;99498.17;;;7.459297;85.69434
86342;BME280;76997;51.520;11.962;2024-03-23T05:50:52;99508.34;;;7.448946;85.78711
86342;BME280;76997;51.520;11.962;2024-03-23T05:56:00;99485.34;;;7.374922;86.0459
86342;BME280;76997;51.520;11.962;2024-03-23T06:00:56;99464.05;;;7.364766;86.00195
86342;BME280;76997;51.520;11.962;2024-03-23T06:05:52;99454.28;;;7.137422;85.98828
86342;BME280;76997;51.520;11.962;2024-03-23T06:10:56;99448.51;;;7.053242;86.75
86342;BME280;76997;51.520;11.962;2024-03-23T06:15:56;99459.38;;;7.109297;86.76172
86342;BME280;76997;51.520;11.962;2024-03-23T06:20:52;99461.17;;;6.92043;86.32422
86342;BME280;76997;51.520;11.962;2024-03-23T06:25:56;99451.05;;;6.642109;86.11133
86342;BME280;76997;51.520;11.962;2024-03-23T06:30:52;99457.73;;;6.412227;87.02148
86342;BME280;76997;51.520;11.962;2024-03-23T06:35:53;99466.23;;;5.924336;88.92578
86342;BME280;76997;51.520;11.962;2024-03-23T06:40:56;99456.95;;;5.791523;89.9668
86342;BME280;76997;51.520;11.962;2024-03-23T06:45:56;99452.73;;;5.794063;89.80957
86342;BME280;76997;51.520;11.962;2024-03-23T06:50:59;99434.94;;;5.663789;89.18555
86342;BME280;76997;51.520;11.962;2024-03-23T06:55:54;99429.83;;;5.554023;89.33105
86342;BME280;76997;51.520;11.962;2024-03-23T07:00:52;99451.25;;;5.446797;89.32031
86342;BME280;76997;51.520;11.962;2024-03-23T07:05:56;99465.18;;;5.32668;88.31055
86342;BME280;76997;51.520;11.962;2024-03-23T07:10:52;99476.92;;;5.117305;88.15332
86342;BME280;76997;51.520;11.962;2024-03-23T07:15:55;99481.5;;;4.994648;88.03418
86342;BME280;76997;51.520;11.962;2024-03-23T07:20:58;99488.58;;;4.757344;88.72754
86342;BME280;76997;51.520;11.962;2024-03-23T07:26:00;99494.21;;;4.422773;88.05176
86342;BME280;76997;51.520;11.962;2024-03-23T07:31:05;99492.41;;;4.305195;87.87207
86342;BME280;76997;51.520;11.962;2024-03-23T07:35:52;99500.89;;;4.118867;87.45996
86342;BME280;76997;51.520;11.962;2024-03-23T07:40:52;99504.63;;;3.965547;88.35742
86342;BME280;76997;51.520;11.962;2024-03-23T07:45:55;99515.5;;;4.006563;88.28223
86342;BME280;76997;51.520;11.962;2024-03-23T07:50:59;99517.66;;;4.009101;88.89746
86342;BME280;76997;51.520;11.962;2024-03-23T07:55:56;99529.88;;;4.075508;88.79688
86342;BME280;76997;51.520;11.962;2024-03-23T08:00:52;99531.16;;;3.871211;87.54395
86342;BME280;76997;51.520;11.962;2024-03-23T08:05:52;99545.56;;;3.860859;87.38477
86342;BME280;76997;51.520;11.962;2024-03-23T08:10:52;99546.88;;;3.919648;87.83691
86342;BME280;76997;51.520;11.962;2024-03-23T08:15:55;99549.68;;;3.904414;88.37598
86342;BME280;76997;51.520;11.962;2024-03-23T08:20:55;99558.45;;;3.812422;87.85547
86342;BME280;76997;51.520;11.962;2024-03-23T08:25:52;99558.7;;;3.947773;89.45996
86342;BME280;76997;51.520;11.962;2024-03-23T08:30:52;99560.02;;;3.993672;87.74609
86342;BME280;76997;51.520;11.962;2024-03-23T08:36:01;99575.8;;;3.919648;87.77441
86342;BME280;76997;51.520;11.962;2024-03-23T08:40:56;99593.57;;;3.909492;88.11523
86342;BME280;76997;51.520;11.962;2024-03-23T08:46:02;99603.99;;;3.912031;88.50293
86342;BME280;76997;51.520;11.962;2024-03-23T08:51:01;99624.23;;;3.891523;87.32813
86342;BME280;76997;51.520;11.962;2024-03-23T08:55:57;99633.03;;;4.003828;87.08008
86342;BME280;76997;51.520;11.962;2024-03-23T09:00:52;99628.75;;;4.021797;87.12598
86342;BME280;76997;51.520;11.962;2024-03-23T09:05:52;99622.84;;;4.203047;87.40234
86342;BME280;76997;51.520;11.962;2024-03-23T09:10:52;99634.56;;;4.259297;87.51953
86342;BME280;76997;51.520;11.962;2024-03-23T09:15:52;99642.73;;;4.323164;85.52539
86342;BME280;76997;51.520;11.962;2024-03-23T09:20:52;99651.05;;;4.33332;85.61035
86342;BME280;76997;51.520;11.962;2024-03-23T09:25:51;99669.27;;;4.233711;86.07227
86342;BME280;76997;51.520;11.962;2024-03-23T09:30:51;99674.44;;;4.266914;86.19336
86342;BME280;76997;51.520;11.962;2024-03-23T09:35:51;99712.84;;;4.070234;86.72754
86342;BME280;76997;51.520;11.962;2024-03-23T09:40:52;99725.29;;;3.996211;85.6582
86342;BME280;76997;51.520;11.962;2024-03-23T09:45:52;99726.75;;;3.952852;86.55859
86342;BME280;76997;51.520;11.962;2024-03-23T09:50:51;99733.2;;;3.986055;87.42285
86342;BME280;76997;51.520;11.962;2024-03-23T09:55:52;99742.37;;;4.024336;87.07324
86342;BME280;76997;51.520;11.962;2024-03-23T10:00:51;99744.41;;;4.134101;87.06543
86342;BME280;76997;51.520;11.962;2024-03-23T10:05:59;99750.02;;;4.157148;87.42383
86342;BME280;76997;51.520;11.962;2024-03-23T10:10:51;99771.63;;;4.182734;87.54492
86342;BME280;76997;51.520;11.962;2024-03-23T10:15:54;99770.48;;;4.37668;87.16699
86342;BME280;76997;51.520;11.962;2024-03-23T10:20:52;99779.7;;;4.57082;86.70313
86342;BME280;76997;51.520;11.962;2024-03-23T10:25:51;99784.87;;;4.803242;85.85156
86342;BME280;76997;51.520;11.962;2024-03-23T10:30:51;99791.95;;;4.938594;84.30762
86342;BME280;76997;51.520;11.962;2024-03-23T10:35:51;99798.59;;;5.017695;82.81348
86342;BME280;76997;51.520;11.962;2024-03-23T10:40:56;99815.52;;;5.178633;81.62012
86342;BME280;76997;51.520;11.962;2024-03-23T10:45:52;99818.15;;;5.533515;81.99023
86342;BME280;76997;51.520;11.962;2024-03-23T10:50:52;99838.27;;;5.485078;80.99512
86342;BME280;76997;51.520;11.962;2024-03-23T10:55:52;99841.67;;;5.548945;81.44629
86342;BME280;76997;51.520;11.962;2024-03-23T11:00:51;99845.19;;;5.411055;80.00488
86342;BME280;76997;51.520;11.962;2024-03-23T11:05:55;99827.52;;;5.523359;81.37793
86342;BME280;76997;51.520;11.962;2024-03-23T11:10:55;99827.06;;;5.725117;81.41699
86342;BME280;76997;51.520;11.962;2024-03-23T11:15:51;99830.84;;;5.505391;78.55176
86342;BME280;76997;51.520;11.962;2024-03-23T11:20:55;99826.91;;;5.837422;78.30762
86342;BME280;76997;51.520;11.962;2024-03-23T11:25:51;99817.78;;;6.859102;76.42676
86342;BME280;76997;51.520;11.962;2024-03-23T11:30:51;99816.39;;;9.106563;70.59668
86342;BME280;76997;51.520;11.962;2024-03-23T11:35:51;99803.63;;;10.76398;63.01172
86342;BME280;76997;51.520;11.962;2024-03-23T11:40:55;99809.24;;;9.430781;63.4043
86342;BME280;76997;51.520;11.962;2024-03-23T11:45:52;99801.02;;;10.47297;61.84961
86342;BME280;76997;51.520;11.962;2024-03-23T11:50:55;99792.73;;;10.07434;60.58789
86342;BME280;76997;51.520;11.962;2024-03-23T11:55:52;99777.69;;;11.99758;52.81543
86342;BME280;76997;51.520;11.962;2024-03-23T12:00:56;99775.78;;;13.11613;52.13184
86342;BME280;76997;51.520;11.962;2024-03-23T12:05:52;99768.16;;;12.06906;53.33008
86342;BME280;76997;51.520;11.962;2024-03-23T12:10:52;99782.28;;;11.71144;52.22266
86342;BME280;76997;51.520;11.962;2024-03-23T12:15:52;99773.47;;;12.53391;51.2998
86342;BME280;76997;51.520;11.962;2024-03-23T12:20:55;99769.95;;;13.31047;50.98047
86342;BME280;76997;51.520;11.962;2024-03-23T12:25:56;99759.49;;;13.17492;49.99512
86342;BME280;76997;51.520;11.962;2024-03-23T12:30:52;99760.16;;;13.92336;49.10742
86342;BME280;76997;51.520;11.962;2024-03-23T12:35:52;99755.42;;;14.30891;45.98047
86342;BME280;76997;51.520;11.962;2024-03-23T12:40:51;99745.63;;;13.56828;45.80664
86342;BME280;76997;51.520;11.962;2024-03-23T12:45:51;99741.1;;;13.18508;42.88281
86342;BME280;76997;51.520;11.962;2024-03-23T12:50:54;99741.04;;;12.57219;44.8291
86342;BME280;76997;51.520;11.962;2024-03-23T12:55:51;99725.96;;;13.07277;44.04883
86342;BME280;76997;51.520;11.962;2024-03-23T13:00:51;99720.13;;;13.30266;44.24512
86342;BME280;76997;51.520;11.962;2024-03-23T13:05:59;99734.38;;;12.54152;45.24609
86342;BME280;76997;51.520;11.962;2024-03-23T13:10:51;99726.83;;;11.83918;48.05762
86342;BME280;76997;51.520;11.962;2024-03-23T13:15:53;99720.86;;;12.48293;46.56641
86342;BME280;76997;51.520;11.962;2024-03-23T13:20:51;99727.02;;;11.97473;46.74902
86342;BME280;76997;51.520;11.962;2024-03-23T13:25:55;99742.74;;;13.8007;44.85742
86342;BME280;76997;51.520;11.962;2024-03-23T13:30:55;99730.08;;;15.64973;41.03711
86342;BME280;76997;51.520;11.962;2024-03-23T13:35:55;99725.7;;;15.64973;40.39551
86342;BME280;76997;51.520;11.962;2024-03-23T13:40:59;99742.56;;;13.56828;43.51465
86342;BME280;76997;51.520;11.962;2024-03-23T13:45:53;99769.69;;;10.92492;51.36816
86342;BME280;76997;51.520;11.962;2024-03-23T13:50:56;99792.74;;;8.547188;52.41113
86342;BME280;76997;51.520;11.962;2024-03-23T13:55:51;99809.85;;;6.751875;65.04785
86342;BME280;76997;51.520;11.962;2024-03-23T14:00:51;99853.34;;;4.808321;72.11621
86342;BME280;76997;51.520;11.962;2024-03-23T14:05:51;99872.36;;;3.965547;76.96484
86342;BME280;76997;51.520;11.962;2024-03-23T14:10:51;99870.28;;;3.807344;80.13672
86342;BME280;76997;51.520;11.962;2024-03-23T14:15:56;99854.83;;;4.065156;81.71191
86342;BME280;76997;51.520;11.962;2024-03-23T14:20:51;99839.98;;;4.402266;80.47656
86342;BME280;76997;51.520;11.962;2024-03-23T14:25:56;99827.3;;;4.925703;81.18359
86342;BME280;76997;51.520;11.962;2024-03-23T14:30:52;99830.16;;;5.232149;79.37305
86342;BME280;76997;51.520;11.962;2024-03-23T14:35:55;99840.09;;;5.099531;79.01367
86342;BME280;76997;51.520;11.962;2024-03-23T14:40:51;99821.3;;;5.206758;79.62012
86342;BME280;76997;51.520;11.962;2024-03-23T14:46:10;99805.86;;;5.926875;77.90234
86342;BME280;76997;51.520;11.962;2024-03-23T14:50:55;99797.5;;;6.131367;75.87598
86342;BME280;76997;51.520;11.962;2024-03-23T14:55:51;99797.53;;;6.933125;72.53613
86342;BME280;76997;51.520;11.962;2024-03-23T15:00:51;99803.86;;;7.441328;70.00879
86342;BME280;76997;51.520;11.962;2024-03-23T15:05:58;99805.56;;;7.111836;70.84473
86342;BME280;76997;51.520;11.962;2024-03-23T15:10:51;99800.79;;;7.522969;71.10059
86342;BME280;76997;51.520;11.962;2024-03-23T15:15:51;99793.25;;;6.838594;69.71191
86342;BME280;76997;51.520;11.962;2024-03-23T15:20:55;99794.98;;;6.951094;70.60547
86342;BME280;76997;51.520;11.962;2024-03-23T15:25:58;99786.44;;;8.77707;68.49512
86342;BME280;76997;51.520;11.962;2024-03-23T15:30:51;99778.36;;;9.428242;63.12793
86342;BME280;76997;51.520;11.962;2024-03-23T15:35:52;99770.63;;;8.741328;62.75195
86342;BME280;76997;51.520;11.962;2024-03-23T15:40:54;99760.92;;;8.437422;63.10156
86342;BME280;76997;51.520;11.962;2024-03-23T15:45:58;99760.55;;;8.588203;63.43164
86342;BME280;76997;51.520;11.962;2024-03-23T15:50:55;99756.45;;;8.304414;64.95117
86342;BME280;76997;51.520;11.962;2024-03-23T15:55:57;99742.59;;;7.344258;65.64355
86342;BME280;76997;51.520;11.962;2024-03-23T16:00:57;99742.64;;;6.907539;68.6875
86342;BME280;76997;51.520;11.962;2024-03-23T16:05:54;99748.52;;;6.647188;69.73242
86342;BME280;76997;51.520;11.962;2024-03-23T16:10:52;99737.11;;;6.504219;70.01563
86342;BME280;76997;51.520;11.962;2024-03-23T16:15:58;99741.88;;;6.381563;70.4707
86342;BME280;76997;51.520;11.962;2024-03-23T16:20:56;99742.48;;;6.258906;70.25195
86342;BME280;76997;51.520;11.962;2024-03-23T16:25:53;99744.36;;;6.24875;71.11328
86342;BME280;76997;51.520;11.962;2024-03-23T16:30:57;99746.69;;;6.210469;70.28516
86342;BME280;76997;51.520;11.962;2024-03-23T16:35:59;99746.06;;;6.215547;68.3877
86342;BME280;76997;51.520;11.962;2024-03-23T16:40:57;99745.86;;;6.281953;67.83887
86342;BME280;76997;51.520;11.962;2024-03-23T16:45:56;99755.94;;;6.363789;67.63965
86342;BME280;76997;51.520;11.962;2024-03-23T16:50:51;99765.52;;;6.093086;67.89355
86342;BME280;76997;51.520;11.962;2024-03-23T16:55:54;99770.91;;;5.755781;70.63184
86342;BME280;76997;51.520;11.962;2024-03-23T17:00:51;99763.52;;;5.74543;72.07324
86342;BME280;76997;51.520;11.962;2024-03-23T17:05:51;99758.66;;;5.375312;73.11621
86342;BME280;76997;51.520;11.962;2024-03-23T17:10:57;99752.93;;;5.112226;74.15527
86342;BME280;76997;51.520;11.962;2024-03-23T17:15:51;99772.65;;;4.96418;74.47461
86342;BME280;76997;51.520;11.962;2024-03-23T17:20:56;99780.6;;;4.879805;75.58496
86342;BME280;76997;51.520;11.962;2024-03-23T17:25:51;99776.31;;;4.693477;76.95703
86342;BME280;76997;51.520;11.962;2024-03-23T17:30:51;99781.84;;;4.484102;77.89453
86342;BME280;76997;51.520;11.962;2024-03-23T17:35:51;99784.69;;;4.271992;79.04004
86342;BME280;76997;51.520;11.962;2024-03-23T17:40:59;99792.21;;;4.149531;79.34277
86342;BME280;76997;51.520;11.962;2024-03-23T17:45:51;99797.72;;;4.029414;79.20508
86342;BME280;76997;51.520;11.962;2024-03-23T17:51:04;99802.92;;;3.865938;80.41992
86342;BME280;76997;51.520;11.962;2024-03-23T17:55:51;99807.03;;;3.751094;80.43848
86342;BME280;76997;51.520;11.962;2024-03-23T18:00:51;99804.13;;;3.679609;80.2793
86342;BME280;76997;51.520;11.962;2024-03-23T18:05:51;99799.75;;;3.628633;80.4375
86342;BME280;76997;51.520;11.962;2024-03-23T18:10:51;99801.45;;;3.518672;80.93066
86342;BME280;76997;51.520;11.962;2024-03-23T18:15:58;99809.92;;;3.462617;81.01172
86342;BME280;76997;51.520;11.962;2024-03-23T18:20:51;99812.03;;;3.38586;81.23828
86342;BME280;76997;51.520;11.962;2024-03-23T18:25:54;99815.48;;;3.35793;81.61914
86342;BME280;76997;51.520;11.962;2024-03-23T18:31:00;99808.61;;;3.413984;81.13867
86342;BME280;76997;51.520;11.962;2024-03-23T18:35:52;99811.05;;;3.62082;80.19629
86342;BME280;76997;51.520;11.962;2024-03-23T18:40:51;99815.82;;;3.76125;79.9082
86342;BME280;76997;51.520;11.962;2024-03-23T18:45:55;99826.19;;;3.85832;79.6748
86342;BME280;76997;51.520;11.962;2024-03-23T18:50:51;99837.63;;;3.950313;79.34766
86342;BME280;76997;51.520;11.962;2024-03-23T18:55:57;99849.13;;;4.144453;78.33594
86342;BME280;76997;51.520;11.962;2024-03-23T19:00:54;99839.98;;;4.19543;80.4502
86342;BME280;76997;51.520;11.962;2024-03-23T19:05:55;99831.16;;;3.942695;82.09668
86342;BME280;76997;51.520;11.962;2024-03-23T19:10:56;99815.64;;;3.67707;82.00391
86342;BME280;76997;51.520;11.962;2024-03-23T19:15:51;99802.33;;;3.546797;83.04395
86342;BME280;76997;51.520;11.962;2024-03-23T19:20:55;99795.53;;;3.429414;84.14941
86342;BME280;76997;51.520;11.962;2024-03-23T19:25:55;99804.47;;;3.470234;84.65723
86342;BME280;76997;51.520;11.962;2024-03-23T19:30:52;99799.98;;;3.477852;84.87793
86342;BME280;76997;51.520;11.962;2024-03-23T19:35:57;99796.57;;;3.480391;84.39844
86342;BME280;76997;51.520;11.962;2024-03-23T19:40:56;99794.23;;;3.442109;84.61035
86342;BME280;76997;51.520;11.962;2024-03-23T19:45:51;99793.46;;;3.429414;84.72266
86342;BME280;76997;51.520;11.962;2024-03-23T19:50:58;99801.3;;;3.470234;83.47852
86342;BME280;76997;51.520;11.962;2024-03-23T19:55:56;99806.11;;;3.511055;83.99707
86342;BME280;76997;51.520;11.962;2024-03-23T20:00:51;99818.33;;;3.597969;83.3457
86342;BME280;76997;51.520;11.962;2024-03-23T20:05:59;99799.39;;;3.352656;84.88477
86342;BME280;76997;51.520;11.962;2024-03-23T20:10:51;99773.08;;;3.222578;86.03711
86342;BME280;76997;51.520;11.962;2024-03-23T20:15:55;99792.73;;;3.186836;86.43555
86342;BME280;76997;51.520;11.962;2024-03-23T20:20:51;99789.08;;;3.204609;86.25195
86342;BME280;76997;51.520;11.962;2024-03-23T20:25:55;99785.46;;;3.117891;87.15234
86342;BME280;76997;51.520;11.962;2024-03-23T20:30:59;99780.25;;;3.066719;87.93359
86342;BME280;76997;51.520;11.962;2024-03-23T20:35:51;99781.66;;;3.005391;88.18066
86342;BME280;76997;51.520;11.962;2024-03-23T20:40:55;99790.44;;;2.941524;88.05273
86342;BME280;76997;51.520;11.962;2024-03-23T20:45:54;99791.11;;;2.859883;88.03711
86342;BME280;76997;51.520;11.962;2024-03-23T20:50:59;99785.01;;;2.788399;87.78223
86342;BME280;76997;51.520;11.962;2024-03-23T20:55:54;99778.48;;;2.739961;87.73047
86342;BME280;76997;51.520;11.962;2024-03-23T21:00:51;99775.16;;;2.640352;88.03418
86342;BME280;76997;51.520;11.962;2024-03-23T21:05:51;99774.08;;;2.563594;88.21387
86342;BME280;76997;51.520;11.962;2024-03-23T21:10:54;99772;;;2.515156;88.43359
86342;BME280;76997;51.520;11.962;2024-03-23T21:15:52;99769.51;;;2.481953;88.58301
86342;BME280;76997;51.520;11.962;2024-03-23T21:20:53;99767.08;;;2.372188;88.85254
86342;BME280;76997;51.520;11.962;2024-03-23T21:25:57;99768.66;;;2.397774;89.29297
86342;BME280;76997;51.520;11.962;2024-03-23T21:30:51;99762.98;;;2.395039;89.10645
86342;BME280;76997;51.520;11.962;2024-03-23T21:35:57;99756.16;;;2.402852;89.32422
86342;BME280;76997;51.520;11.962;2024-03-23T21:40:58;99757.82;;;2.349141;89.06543
86342;BME280;76997;51.520;11.962;2024-03-23T21:45:58;99755.71;;;2.338985;89.15723
86342;BME280;76997;51.520;11.962;2024-03-23T21:50:51;99757.06;;;2.410469;88.25586
86342;BME280;76997;51.520;11.962;2024-03-23T21:55:51;99747.45;;;2.35168;88.66992
86342;BME280;76997;51.520;11.962;2024-03-23T22:00:55;99748.77;;;2.418086;88.18457
86342;BME280;76997;51.520;11.962;2024-03-23T22:05:56;99744.31;;;2.543281;87.05566
86342;BME280;76997;51.520;11.962;2024-03-23T22:10:51;99741.37;;;2.601875;86.25586
86342;BME280;76997;51.520;11.962;2024-03-23T22:15:55;99729.82;;;2.619844;86.20898
86342;BME280;76997;51.520;11.962;2024-03-23T22:20:58;99722.03;;;2.719453;83.46777
86342;BME280;76997;51.520;11.962;2024-03-23T22:25:51;99719.48;;;2.714375;83.33105
86342;BME280;76997;51.520;11.962;2024-03-23T22:30:57;99713.49;;;2.668281;82.87598
86342;BME280;76997;51.520;11.962;2024-03-23T22:35:51;99717.59;;;2.58918;82.79688
86342;BME280;76997;51.520;11.962;2024-03-23T22:40:58;99714.09;;;2.632539;82.15918
86342;BME280;76997;51.520;11.962;2024-03-23T22:45:57;99721.57;;;2.563594;82.25977
86342;BME280;76997;51.520;11.962;2024-03-23T22:50:52;99717.34;;;2.430781;82.85938
86342;BME280;76997;51.520;11.962;2024-03-23T22:55:52;99717.89;;;2.285274;84.25781
86342;BME280;76997;51.520;11.962;2024-03-23T23:00:51;99713.3;;;2.367109;82.62988
86342;BME280;76997;51.520;11.962;2024-03-23T23:06:01;99710.03;;;2.36457;82.33594
86342;BME280;76997;51.520;11.962;2024-03-23T23:10:51;99704.97;;;2.196016;83.93945
86342;BME280;76997;51.520;11.962;2024-03-23T23:15:55;99694.67;;;2.045234;84.22168
86342;BME280;76997;51.520;11.962;2024-03-23T23:20:51;99699.38;;;2.078438;83.32422
86342;BME280;76997;51.520;11.962;2024-03-23T23:25:51;99693.23;;;2.183125;82.03125
86342;BME280;76997;51.520;11.962;2024-03-23T23:30:58;99681.74;;;2.086055;82.48145
86342;BME280;76997;51.520;11.962;2024-03-23T23:35:51;99679.05;;;2.124531;81.83301
86342;BME280;76997;51.520;11.962;2024-03-23T23:40:55;99677.47;;;2.185664;80.83496
86342;BME280;76997;51.520;11.962;2024-03-23T23:45:51;99676.93;;;2.144844;81.24316
86342;BME280;76997;51.520;11.962;2024-03-23T23:50:55;99675.68;;;2.050313;81.6416
86342;BME280;76997;51.520;11.962;2024-03-23T23:55:51;99666.45;;;2.01457;81.52148
